Tropical Cyclones
[Index]
Main Index Home Page Stock Weather Photos Extreme Storms Discussion Storm News and Storm Chasing Reports Tropical Cyclones / Hurricanes / Typhoons Weather Data and Links Wild Fires / Bushfires Weather Observation Techniques Weather Picture Catalogue Tornado Pictures and Reports Stock Video Footage and DVDs for sale
Season 1963-1964 Tropical Cyclone KATIE Track Map
Season 1963-1964 Summaries: [BoM-AU] [JTWC-AU] [JTWC-SIO] [JTWC-SPAC] [JTWC-SH]
<<- Previous TC | JTWC 1963-1964 Season | Next TC ->>

click for intensity scale information  Lat/long Grid: Show Hide

 Date Labels: Show Hide

Joint Typhoon Warning Centre Cyclone Data

Name: KATIE
Number: 530 / 6428

25 Mar 1964 00:00 UTC to 02 Apr 1964 18:00 UTC

    date/time    lat    long     hPa   cat  kts
1964-03-25 00   12.6   128.8                              
1964-03-25 06   12.6   127.9                              
1964-03-25 12   12.6   127.2                              
1964-03-25 18   12.6   126.6                              
1964-03-26 00   12.6   125.8                              
1964-03-26 06   12.9   123.9                              
1964-03-26 12   13.4   121.9                              
1964-03-26 18   14.2   120.1                              
1964-03-27 00   14.8   118.9                              
1964-03-27 06   15.0   118.2                              
1964-03-27 12   15.4   117.5                              
1964-03-27 18   15.8   116.6                              
1964-03-28 00   16.2   115.9                              
1964-03-28 06   16.4   115.3                              
1964-03-28 12   16.8   114.8                              
1964-03-28 18   17.3   114.2                              
1964-03-29 00   17.7   114.0                              
1964-03-29 06   17.9   113.9                              
1964-03-29 12   18.1   113.9                              
1964-03-29 18   18.2   113.8                              
1964-03-30 00   18.5   113.8                              
1964-03-30 06   19.6   113.9                              
1964-03-30 12   20.8   113.9                              
1964-03-30 18   21.8   113.7                              
1964-03-31 00   22.8   113.4                              
1964-03-31 06   23.6   113.0                              
1964-03-31 12   24.6   112.6                              
1964-03-31 18   25.7   112.2                              
1964-04-01 00   26.9   112.1                              
1964-04-01 06   27.8   112.6                              
1964-04-01 12   28.6   113.4                              
1964-04-01 18   29.2   114.2                              
1964-04-02 00   29.9   115.1                              
1964-04-02 06   30.9   116.2                              
1964-04-02 12   31.9   117.6                              
1964-04-02 18   32.9   119.3                              
Winds are 1-min average.

Tropical cyclone tracks developed by Michael Bath using data from the Joint Typhoon Warning Centre Best Tracks and Google Maps.


[Australian Severe Weather index] [Copyright Notice] [Email Contacts] [Search This Site] [Privacy Policy]
Document: tropical_cyclone_katie.htm Updated: 18 September 2016